sensor_id;sensor_type;location;lat;lon;timestamp;pressure;altitude;pressure_sealevel;temperature;humidity
7660;BME280;3872;47.902;8.162;2023-08-06T00:00:51;91370.50;;;13.03;100.00
7660;BME280;3872;47.902;8.162;2023-08-06T00:03:18;91367.28;;;12.97;100.00
7660;BME280;3872;47.902;8.162;2023-08-06T00:05:45;91363.78;;;12.84;100.00
7660;BME280;3872;47.902;8.162;2023-08-06T00:08:11;91361.00;;;13.10;100.00
7660;BME280;3872;47.902;8.162;2023-08-06T00:10:40;91361.31;;;13.09;100.00
7660;BME280;3872;47.902;8.162;2023-08-06T00:13:07;91366.50;;;12.67;100.00
7660;BME280;3872;47.902;8.162;2023-08-06T00:15:33;91364.22;;;12.86;100.00
7660;BME280;3872;47.902;8.162;2023-08-06T00:18:00;91359.19;;;12.73;100.00
7660;BME280;3872;47.902;8.162;2023-08-06T00:20:26;91354.94;;;12.80;100.00
7660;BME280;3872;47.902;8.162;2023-08-06T00:22:55;91346.94;;;12.30;100.00
7660;BME280;3872;47.902;8.162;2023-08-06T00:25:21;91344.38;;;12.22;100.00
7660;BME280;3872;47.902;8.162;2023-08-06T00:27:49;91343.44;;;12.55;100.00
7660;BME280;3872;47.902;8.162;2023-08-06T00:30:16;91353.31;;;12.67;100.00
7660;BME280;3872;47.902;8.162;2023-08-06T00:32:43;91358.41;;;12.72;100.00
7660;BME280;3872;47.902;8.162;2023-08-06T00:35:10;91355.72;;;12.81;100.00
7660;BME280;3872;47.902;8.162;2023-08-06T00:37:39;91362.16;;;12.71;100.00
7660;BME280;3872;47.902;8.162;2023-08-06T00:40:07;91352.63;;;12.79;100.00
7660;BME280;3872;47.902;8.162;2023-08-06T00:42:34;91347.03;;;12.80;100.00
7660;BME280;3872;47.902;8.162;2023-08-06T00:45:02;91340.94;;;12.88;100.00
7660;BME280;3872;47.902;8.162;2023-08-06T00:47:29;91342.25;;;12.74;100.00
7660;BME280;3872;47.902;8.162;2023-08-06T00:49:56;91337.44;;;12.76;100.00
7660;BME280;3872;47.902;8.162;2023-08-06T00:52:22;91337.72;;;12.83;100.00
7660;BME280;3872;47.902;8.162;2023-08-06T00:54:49;91331.22;;;12.72;100.00
7660;BME280;3872;47.902;8.162;2023-08-06T00:57:16;91333.41;;;12.78;100.00
7660;BME280;3872;47.902;8.162;2023-08-06T00:59:44;91325.59;;;12.82;100.00
7660;BME280;3872;47.902;8.162;2023-08-06T01:02:12;91328.69;;;12.54;100.00
7660;BME280;3872;47.902;8.162;2023-08-06T01:04:41;91328.81;;;12.29;100.00
7660;BME280;3872;47.902;8.162;2023-08-06T01:07:29;91324.53;;;12.45;100.00
7660;BME280;3872;47.902;8.162;2023-08-06T01:10:12;91316.13;;;12.51;100.00
7660;BME280;3872;47.902;8.162;2023-08-06T01:12:45;91318.53;;;12.65;100.00
7660;BME280;3872;47.902;8.162;2023-08-06T01:15:15;91322.19;;;12.81;100.00
7660;BME280;3872;47.902;8.162;2023-08-06T01:17:47;91316.28;;;12.84;100.00
7660;BME280;3872;47.902;8.162;2023-08-06T01:20:14;91309.63;;;12.49;100.00
7660;BME280;3872;47.902;8.162;2023-08-06T01:22:42;91302.72;;;12.86;100.00
7660;BME280;3872;47.902;8.162;2023-08-06T01:25:09;91302.34;;;12.46;100.00
7660;BME280;3872;47.902;8.162;2023-08-06T01:27:40;91295.03;;;12.72;100.00
7660;BME280;3872;47.902;8.162;2023-08-06T01:30:12;91304.22;;;12.45;100.00
7660;BME280;3872;47.902;8.162;2023-08-06T01:32:42;91290.63;;;12.64;100.00
7660;BME280;3872;47.902;8.162;2023-08-06T01:35:10;91291.06;;;12.87;100.00
7660;BME280;3872;47.902;8.162;2023-08-06T01:37:38;91284.59;;;12.84;100.00
7660;BME280;3872;47.902;8.162;2023-08-06T01:40:09;91266.19;;;12.46;100.00
7660;BME280;3872;47.902;8.162;2023-08-06T01:42:36;91276.19;;;12.32;100.00
7660;BME280;3872;47.902;8.162;2023-08-06T01:45:04;91273.63;;;12.74;100.00
7660;BME280;3872;47.902;8.162;2023-08-06T01:47:30;91269.84;;;12.54;100.00
7660;BME280;3872;47.902;8.162;2023-08-06T01:49:57;91279.09;;;12.69;100.00
7660;BME280;3872;47.902;8.162;2023-08-06T01:52:23;91275.47;;;12.73;100.00
7660;BME280;3872;47.902;8.162;2023-08-06T01:54:50;91276.66;;;12.84;100.00
7660;BME280;3872;47.902;8.162;2023-08-06T01:57:18;91275.22;;;12.87;100.00
7660;BME280;3872;47.902;8.162;2023-08-06T01:59:44;91268.59;;;12.81;100.00
7660;BME280;3872;47.902;8.162;2023-08-06T02:02:12;91259.22;;;12.71;100.00
7660;BME280;3872;47.902;8.162;2023-08-06T02:04:38;91260.31;;;12.91;100.00
7660;BME280;3872;47.902;8.162;2023-08-06T02:07:05;91257.53;;;12.87;100.00
7660;BME280;3872;47.902;8.162;2023-08-06T02:09:32;91267.88;;;12.72;100.00
7660;BME280;3872;47.902;8.162;2023-08-06T02:12:00;91267.16;;;12.42;100.00
7660;BME280;3872;47.902;8.162;2023-08-06T02:14:29;91267.13;;;12.71;100.00
7660;BME280;3872;47.902;8.162;2023-08-06T02:16:55;91263.97;;;12.78;100.00
7660;BME280;3872;47.902;8.162;2023-08-06T02:19:24;91254.84;;;12.46;100.00
7660;BME280;3872;47.902;8.162;2023-08-06T02:21:51;91251.84;;;12.56;100.00
7660;BME280;3872;47.902;8.162;2023-08-06T02:24:17;91246.34;;;12.40;100.00
7660;BME280;3872;47.902;8.162;2023-08-06T02:26:44;91236.63;;;12.53;100.00
7660;BME280;3872;47.902;8.162;2023-08-06T02:29:12;91240.72;;;12.71;100.00
7660;BME280;3872;47.902;8.162;2023-08-06T02:31:40;91228.06;;;12.35;100.00
7660;BME280;3872;47.902;8.162;2023-08-06T02:34:06;91228.25;;;12.30;100.00
7660;BME280;3872;47.902;8.162;2023-08-06T02:36:33;91225.56;;;12.39;100.00
7660;BME280;3872;47.902;8.162;2023-08-06T02:38:59;91223.94;;;12.46;100.00
7660;BME280;3872;47.902;8.162;2023-08-06T02:41:26;91221.91;;;12.52;100.00
7660;BME280;3872;47.902;8.162;2023-08-06T02:43:53;91219.97;;;12.40;100.00
7660;BME280;3872;47.902;8.162;2023-08-06T02:46:19;91230.13;;;12.00;100.00
7660;BME280;3872;47.902;8.162;2023-08-06T02:48:47;91244.09;;;11.92;100.00
7660;BME280;3872;47.902;8.162;2023-08-06T02:51:14;91232.41;;;12.31;100.00
7660;BME280;3872;47.902;8.162;2023-08-06T02:53:41;91244.19;;;12.04;100.00
7660;BME280;3872;47.902;8.162;2023-08-06T02:56:10;91237.09;;;11.96;100.00
7660;BME280;3872;47.902;8.162;2023-08-06T02:58:57;91238.16;;;12.33;100.00
7660;BME280;3872;47.902;8.162;2023-08-06T03:01:59;91253.19;;;12.03;100.00
7660;BME280;3872;47.902;8.162;2023-08-06T03:04:36;91255.47;;;11.67;100.00
7660;BME280;3872;47.902;8.162;2023-08-06T03:07:03;91253.69;;;11.97;100.00
7660;BME280;3872;47.902;8.162;2023-08-06T03:09:38;91259.19;;;11.74;100.00
7660;BME280;3872;47.902;8.162;2023-08-06T03:12:06;91250.47;;;11.91;100.00
7660;BME280;3872;47.902;8.162;2023-08-06T03:14:33;91246.75;;;11.92;100.00
7660;BME280;3872;47.902;8.162;2023-08-06T03:16:59;91259.94;;;11.84;100.00
7660;BME280;3872;47.902;8.162;2023-08-06T03:19:26;91263.34;;;11.93;100.00
7660;BME280;3872;47.902;8.162;2023-08-06T03:21:55;91261.53;;;11.76;100.00
7660;BME280;3872;47.902;8.162;2023-08-06T03:24:21;91256.31;;;11.50;100.00
7660;BME280;3872;47.902;8.162;2023-08-06T03:26:48;91262.19;;;11.38;100.00
7660;BME280;3872;47.902;8.162;2023-08-06T03:29:15;91276.00;;;11.18;100.00
7660;BME280;3872;47.902;8.162;2023-08-06T03:31:42;91262.53;;;11.20;100.00
7660;BME280;3872;47.902;8.162;2023-08-06T03:34:10;91264.03;;;11.64;100.00
7660;BME280;3872;47.902;8.162;2023-08-06T03:36:37;91259.06;;;11.54;100.00
7660;BME280;3872;47.902;8.162;2023-08-06T03:39:05;91268.22;;;11.56;100.00
7660;BME280;3872;47.902;8.162;2023-08-06T03:41:31;91260.94;;;11.45;100.00
7660;BME280;3872;47.902;8.162;2023-08-06T03:43:58;91256.03;;;11.34;100.00
7660;BME280;3872;47.902;8.162;2023-08-06T03:46:26;91269.31;;;11.38;100.00
7660;BME280;3872;47.902;8.162;2023-08-06T03:48:52;91257.19;;;11.63;100.00
7660;BME280;3872;47.902;8.162;2023-08-06T03:51:19;91250.22;;;11.75;100.00
7660;BME280;3872;47.902;8.162;2023-08-06T03:53:47;91248.13;;;11.09;100.00
7660;BME280;3872;47.902;8.162;2023-08-06T03:56:15;91247.69;;;11.07;100.00
7660;BME280;3872;47.902;8.162;2023-08-06T03:58:42;91252.78;;;11.20;100.00
7660;BME280;3872;47.902;8.162;2023-08-06T04:01:09;91244.66;;;11.51;100.00
7660;BME280;3872;47.902;8.162;2023-08-06T04:03:53;91239.22;;;11.56;100.00
7660;BME280;3872;47.902;8.162;2023-08-06T04:06:20;91249.00;;;11.47;100.00
7660;BME280;3872;47.902;8.162;2023-08-06T04:08:46;91247.75;;;11.53;100.00
7660;BME280;3872;47.902;8.162;2023-08-06T04:11:13;91254.09;;;11.52;100.00
7660;BME280;3872;47.902;8.162;2023-08-06T04:13:43;91252.72;;;11.55;100.00
7660;BME280;3872;47.902;8.162;2023-08-06T04:16:10;91249.59;;;11.79;100.00
7660;BME280;3872;47.902;8.162;2023-08-06T04:18:37;91246.84;;;11.49;100.00
7660;BME280;3872;47.902;8.162;2023-08-06T04:21:04;91237.09;;;11.41;100.00
7660;BME280;3872;47.902;8.162;2023-08-06T04:23:30;91239.88;;;11.45;100.00
7660;BME280;3872;47.902;8.162;2023-08-06T04:26:01;91253.25;;;11.14;100.00
7660;BME280;3872;47.902;8.162;2023-08-06T04:28:32;91257.91;;;10.82;100.00
7660;BME280;3872;47.902;8.162;2023-08-06T04:31:00;91250.44;;;11.36;100.00
7660;BME280;3872;47.902;8.162;2023-08-06T04:33:29;91253.50;;;11.38;100.00
7660;BME280;3872;47.902;8.162;2023-08-06T04:35:59;91265.63;;;10.87;100.00
7660;BME280;3872;47.902;8.162;2023-08-06T04:38:26;91276.16;;;11.39;100.00
7660;BME280;3872;47.902;8.162;2023-08-06T04:40:54;91274.94;;;11.11;100.00
7660;BME280;3872;47.902;8.162;2023-08-06T04:43:21;91262.25;;;10.78;100.00
7660;BME280;3872;47.902;8.162;2023-08-06T04:45:49;91271.53;;;10.93;100.00
7660;BME280;3872;47.902;8.162;2023-08-06T04:48:17;91265.28;;;11.49;100.00
7660;BME280;3872;47.902;8.162;2023-08-06T04:50:44;91267.81;;;11.03;100.00
7660;BME280;3872;47.902;8.162;2023-08-06T04:53:11;91257.59;;;11.10;100.00
7660;BME280;3872;47.902;8.162;2023-08-06T04:55:37;91257.91;;;11.08;100.00
7660;BME280;3872;47.902;8.162;2023-08-06T04:58:04;91272.59;;;11.09;100.00
7660;BME280;3872;47.902;8.162;2023-08-06T05:00:31;91271.06;;;11.25;100.00
7660;BME280;3872;47.902;8.162;2023-08-06T05:02:59;91262.84;;;11.35;100.00
7660;BME280;3872;47.902;8.162;2023-08-06T05:05:27;91258.94;;;11.50;100.00
7660;BME280;3872;47.902;8.162;2023-08-06T05:07:55;91250.75;;;11.34;100.00
7660;BME280;3872;47.902;8.162;2023-08-06T05:10:24;91251.09;;;10.98;100.00
7660;BME280;3872;47.902;8.162;2023-08-06T05:12:50;91254.38;;;10.87;100.00
7660;BME280;3872;47.902;8.162;2023-08-06T05:15:17;91251.38;;;11.23;100.00
7660;BME280;3872;47.902;8.162;2023-08-06T05:17:44;91270.31;;;10.99;100.00
7660;BME280;3872;47.902;8.162;2023-08-06T05:20:11;91255.25;;;11.17;100.00
7660;BME280;3872;47.902;8.162;2023-08-06T05:22:39;91267.03;;;11.02;100.00
7660;BME280;3872;47.902;8.162;2023-08-06T05:25:06;91262.41;;;10.99;100.00
7660;BME280;3872;47.902;8.162;2023-08-06T05:27:33;91262.38;;;11.16;100.00
7660;BME280;3872;47.902;8.162;2023-08-06T05:29:59;91266.72;;;11.04;100.00
7660;BME280;3872;47.902;8.162;2023-08-06T05:32:26;91274.16;;;11.19;100.00
7660;BME280;3872;47.902;8.162;2023-08-06T05:34:52;91270.09;;;11.47;100.00
7660;BME280;3872;47.902;8.162;2023-08-06T05:37:19;91279.91;;;11.12;100.00
7660;BME280;3872;47.902;8.162;2023-08-06T05:39:47;91277.41;;;11.24;100.00
7660;BME280;3872;47.902;8.162;2023-08-06T05:42:13;91276.97;;;11.05;100.00
7660;BME280;3872;47.902;8.162;2023-08-06T05:44:40;91284.06;;;10.96;100.00
7660;BME280;3872;47.902;8.162;2023-08-06T05:47:06;91278.94;;;11.17;100.00
7660;BME280;3872;47.902;8.162;2023-08-06T05:49:33;91280.19;;;11.36;100.00
7660;BME280;3872;47.902;8.162;2023-08-06T05:52:00;91282.84;;;11.19;100.00
7660;BME280;3872;47.902;8.162;2023-08-06T05:54:27;91280.34;;;10.88;100.00
7660;BME280;3872;47.902;8.162;2023-08-06T05:56:55;91287.63;;;11.17;100.00
7660;BME280;3872;47.902;8.162;2023-08-06T05:59:22;91275.56;;;10.90;100.00
7660;BME280;3872;47.902;8.162;2023-08-06T06:01:48;91285.31;;;11.33;100.00
7660;BME280;3872;47.902;8.162;2023-08-06T06:04:15;91280.66;;;11.21;100.00
7660;BME280;3872;47.902;8.162;2023-08-06T06:06:41;91286.38;;;10.80;100.00
7660;BME280;3872;47.902;8.162;2023-08-06T06:09:08;91277.25;;;10.78;100.00
7660;BME280;3872;47.902;8.162;2023-08-06T06:11:35;91270.31;;;10.99;100.00
7660;BME280;3872;47.902;8.162;2023-08-06T06:14:02;91274.47;;;10.91;100.00
7660;BME280;3872;47.902;8.162;2023-08-06T06:16:29;91281.28;;;10.84;100.00
7660;BME280;3872;47.902;8.162;2023-08-06T06:18:55;91288.09;;;11.02;100.00
7660;BME280;3872;47.902;8.162;2023-08-06T06:21:22;91282.06;;;10.76;100.00
7660;BME280;3872;47.902;8.162;2023-08-06T06:23:49;91291.81;;;11.18;100.00
7660;BME280;3872;47.902;8.162;2023-08-06T06:26:16;91293.97;;;10.73;100.00
7660;BME280;3872;47.902;8.162;2023-08-06T06:28:43;91305.75;;;11.10;100.00
7660;BME280;3872;47.902;8.162;2023-08-06T06:31:11;91304.34;;;11.30;100.00
7660;BME280;3872;47.902;8.162;2023-08-06T06:33:37;91299.56;;;11.23;100.00
7660;BME280;3872;47.902;8.162;2023-08-06T06:36:04;91309.63;;;10.87;100.00
7660;BME280;3872;47.902;8.162;2023-08-06T06:38:33;91315.38;;;11.15;100.00
7660;BME280;3872;47.902;8.162;2023-08-06T06:40:59;91318.13;;;11.10;100.00
7660;BME280;3872;47.902;8.162;2023-08-06T06:43:28;91316.75;;;11.04;100.00
7660;BME280;3872;47.902;8.162;2023-08-06T06:45:56;91331.44;;;10.79;100.00
7660;BME280;3872;47.902;8.162;2023-08-06T06:48:25;91324.03;;;10.98;100.00
7660;BME280;3872;47.902;8.162;2023-08-06T06:50:52;91328.06;;;11.04;100.00
7660;BME280;3872;47.902;8.162;2023-08-06T06:53:18;91331.94;;;11.07;100.00
7660;BME280;3872;47.902;8.162;2023-08-06T06:55:45;91330.22;;;10.85;100.00
7660;BME280;3872;47.902;8.162;2023-08-06T06:58:14;91331.63;;;11.43;100.00
7660;BME280;3872;47.902;8.162;2023-08-06T07:00:41;91329.94;;;11.12;100.00
7660;BME280;3872;47.902;8.162;2023-08-06T07:03:08;91339.97;;;11.45;100.00
7660;BME280;3872;47.902;8.162;2023-08-06T07:05:35;91344.78;;;11.25;100.00
7660;BME280;3872;47.902;8.162;2023-08-06T07:08:02;91336.59;;;11.18;100.00
7660;BME280;3872;47.902;8.162;2023-08-06T07:10:29;91338.75;;;11.16;100.00
7660;BME280;3872;47.902;8.162;2023-08-06T07:12:55;91342.63;;;11.10;100.00
7660;BME280;3872;47.902;8.162;2023-08-06T07:15:22;91337.53;;;11.22;100.00
7660;BME280;3872;47.902;8.162;2023-08-06T07:17:48;91348.03;;;10.96;100.00
7660;BME280;3872;47.902;8.162;2023-08-06T07:20:15;91346.97;;;11.06;100.00
7660;BME280;3872;47.902;8.162;2023-08-06T07:22:43;91346.19;;;11.57;100.00
7660;BME280;3872;47.902;8.162;2023-08-06T07:25:10;91343.88;;;11.21;100.00
7660;BME280;3872;47.902;8.162;2023-08-06T07:27:36;91350.22;;;11.55;100.00
7660;BME280;3872;47.902;8.162;2023-08-06T07:30:03;91348.06;;;11.48;100.00
7660;BME280;3872;47.902;8.162;2023-08-06T07:32:31;91353.00;;;11.41;100.00
7660;BME280;3872;47.902;8.162;2023-08-06T07:34:58;91356.59;;;11.28;100.00
7660;BME280;3872;47.902;8.162;2023-08-06T07:37:26;91352.41;;;11.27;100.00
7660;BME280;3872;47.902;8.162;2023-08-06T07:39:55;91362.47;;;11.33;100.00
7660;BME280;3872;47.902;8.162;2023-08-06T07:42:21;91366.31;;;10.93;100.00
7660;BME280;3872;47.902;8.162;2023-08-06T07:44:51;91370.94;;;10.96;100.00
7660;BME280;3872;47.902;8.162;2023-08-06T07:47:18;91380.25;;;10.93;100.00
7660;BME280;3872;47.902;8.162;2023-08-06T07:49:44;91374.19;;;10.84;100.00
7660;BME280;3872;47.902;8.162;2023-08-06T07:52:11;91370.28;;;10.82;100.00
7660;BME280;3872;47.902;8.162;2023-08-06T07:54:37;91371.06;;;10.82;100.00
7660;BME280;3872;47.902;8.162;2023-08-06T07:57:06;91369.41;;;11.04;100.00
7660;BME280;3872;47.902;8.162;2023-08-06T07:59:33;91369.59;;;11.07;100.00
7660;BME280;3872;47.902;8.162;2023-08-06T08:01:59;91364.88;;;10.70;100.00
7660;BME280;3872;47.902;8.162;2023-08-06T08:04:26;91357.97;;;11.25;100.00
7660;BME280;3872;47.902;8.162;2023-08-06T08:06:52;91362.78;;;11.15;100.00
7660;BME280;3872;47.902;8.162;2023-08-06T08:09:19;91364.31;;;11.42;100.00
7660;BME280;3872;47.902;8.162;2023-08-06T08:11:46;91375.78;;;11.20;100.00
7660;BME280;3872;47.902;8.162;2023-08-06T08:14:14;91369.59;;;11.24;100.00
7660;BME280;3872;47.902;8.162;2023-08-06T08:16:40;91375.03;;;11.28;100.00
7660;BME280;3872;47.902;8.162;2023-08-06T08:19:07;91382.72;;;11.16;100.00
7660;BME280;3872;47.902;8.162;2023-08-06T08:21:33;91384.78;;;11.53;100.00
7660;BME280;3872;47.902;8.162;2023-08-06T08:24:00;91391.47;;;11.76;100.00
7660;BME280;3872;47.902;8.162;2023-08-06T08:26:27;91389.56;;;11.60;100.00
7660;BME280;3872;47.902;8.162;2023-08-06T08:28:53;91391.72;;;11.66;100.00
7660;BME280;3872;47.902;8.162;2023-08-06T08:31:21;91392.03;;;11.73;100.00
7660;BME280;3872;47.902;8.162;2023-08-06T08:33:48;91381.06;;;11.46;100.00
7660;BME280;3872;47.902;8.162;2023-08-06T08:36:14;91391.13;;;11.69;100.00
7660;BME280;3872;47.902;8.162;2023-08-06T08:38:41;91390.34;;;11.52;100.00
7660;BME280;3872;47.902;8.162;2023-08-06T08:41:09;91393.31;;;11.76;100.00
7660;BME280;3872;47.902;8.162;2023-08-06T08:43:36;91393.13;;;11.72;100.00
7660;BME280;3872;47.902;8.162;2023-08-06T08:46:04;91400.44;;;11.75;100.00
7660;BME280;3872;47.902;8.162;2023-08-06T08:48:34;91398.28;;;11.86;100.00
7660;BME280;3872;47.902;8.162;2023-08-06T08:51:00;91402.78;;;11.77;100.00
7660;BME280;3872;47.902;8.162;2023-08-06T08:53:28;91398.13;;;11.74;100.00
7660;BME280;3872;47.902;8.162;2023-08-06T08:55:55;91410.81;;;11.81;100.00
7660;BME280;3872;47.902;8.162;2023-08-06T08:58:21;91410.69;;;11.77;100.00
7660;BME280;3872;47.902;8.162;2023-08-06T09:00:48;91420.28;;;11.47;100.00
7660;BME280;3872;47.902;8.162;2023-08-06T09:03:16;91422.00;;;11.77;100.00
7660;BME280;3872;47.902;8.162;2023-08-06T09:05:44;91410.38;;;11.79;100.00
7660;BME280;3872;47.902;8.162;2023-08-06T09:08:15;91416.25;;;11.50;100.00
7660;BME280;3872;47.902;8.162;2023-08-06T09:10:43;91415.44;;;11.23;100.00
7660;BME280;3872;47.902;8.162;2023-08-06T09:13:10;91418.53;;;11.25;100.00
7660;BME280;3872;47.902;8.162;2023-08-06T09:15:37;91415.44;;;11.32;100.00
7660;BME280;3872;47.902;8.162;2023-08-06T09:18:09;91421.34;;;11.37;100.00
7660;BME280;3872;47.902;8.162;2023-08-06T09:20:37;91423.38;;;11.49;100.00
7660;BME280;3872;47.902;8.162;2023-08-06T09:23:08;91423.69;;;11.56;100.00
7660;BME280;3872;47.902;8.162;2023-08-06T09:25:37;91434.41;;;11.77;100.00
7660;BME280;3872;47.902;8.162;2023-08-06T09:28:04;91437.00;;;12.20;100.00
7660;BME280;3872;47.902;8.162;2023-08-06T09:30:33;91429.69;;;12.26;100.00
7660;BME280;3872;47.902;8.162;2023-08-06T09:33:00;91429.50;;;12.31;100.00
7660;BME280;3872;47.902;8.162;2023-08-06T09:35:28;91438.66;;;12.42;100.00
7660;BME280;3872;47.902;8.162;2023-08-06T09:37:55;91439.81;;;12.06;100.00
7660;BME280;3872;47.902;8.162;2023-08-06T09:40:27;91437.59;;;12.26;100.00
7660;BME280;3872;47.902;8.162;2023-08-06T09:42:54;91433.28;;;11.69;100.00
7660;BME280;3872;47.902;8.162;2023-08-06T09:45:21;91441.50;;;12.02;100.00
7660;BME280;3872;47.902;8.162;2023-08-06T09:47:48;91444.16;;;12.02;100.00
7660;BME280;3872;47.902;8.162;2023-08-06T09:50:16;91450.38;;;11.98;100.00
7660;BME280;3872;47.902;8.162;2023-08-06T09:52:43;91450.38;;;12.06;100.00
7660;BME280;3872;47.902;8.162;2023-08-06T09:55:11;91453.78;;;11.90;100.00
7660;BME280;3872;47.902;8.162;2023-08-06T09:57:40;91460.56;;;12.08;100.00
7660;BME280;3872;47.902;8.162;2023-08-06T10:00:08;91453.31;;;11.70;100.00
7660;BME280;3872;47.902;8.162;2023-08-06T10:02:41;91463.41;;;11.86;100.00
7660;BME280;3872;47.902;8.162;2023-08-06T10:05:08;91464.28;;;11.47;100.00
7660;BME280;3872;47.902;8.162;2023-08-06T10:07:35;91472.81;;;11.52;100.00
7660;BME280;3872;47.902;8.162;2023-08-06T10:10:02;91457.34;;;11.76;100.00
7660;BME280;3872;47.902;8.162;2023-08-06T10:12:32;91465.41;;;11.89;100.00
7660;BME280;3872;47.902;8.162;2023-08-06T10:15:06;91473.94;;;11.94;100.00
7660;BME280;3872;47.902;8.162;2023-08-06T10:17:36;91468.50;;;12.16;100.00
7660;BME280;3872;47.902;8.162;2023-08-06T10:20:04;91455.63;;;11.72;100.00
7660;BME280;3872;47.902;8.162;2023-08-06T10:22:32;91464.63;;;12.05;100.00
7660;BME280;3872;47.902;8.162;2023-08-06T10:25:00;91466.75;;;12.38;100.00
7660;BME280;3872;47.902;8.162;2023-08-06T10:27:30;91468.97;;;12.01;100.00
7660;BME280;3872;47.902;8.162;2023-08-06T10:32:59;91470.84;;;12.65;100.00
7660;BME280;3872;47.902;8.162;2023-08-06T10:35:31;91470.94;;;12.47;100.00
7660;BME280;3872;47.902;8.162;2023-08-06T10:37:59;91471.59;;;12.27;100.00
7660;BME280;3872;47.902;8.162;2023-08-06T10:40:26;91478.34;;;12.63;100.00
7660;BME280;3872;47.902;8.162;2023-08-06T10:42:54;91491.66;;;12.66;100.00
7660;BME280;3872;47.902;8.162;2023-08-06T10:45:30;91487.06;;;12.54;100.00
7660;BME280;3872;47.902;8.162;2023-08-06T10:48:00;91490.50;;;12.93;100.00
7660;BME280;3872;47.902;8.162;2023-08-06T10:50:26;91480.84;;;12.50;100.00
7660;BME280;3872;47.902;8.162;2023-08-06T10:52:53;91476.88;;;12.27;100.00
7660;BME280;3872;47.902;8.162;2023-08-06T10:55:24;91484.06;;;12.65;100.00
7660;BME280;3872;47.902;8.162;2023-08-06T10:57:52;91489.00;;;12.75;100.00
7660;BME280;3872;47.902;8.162;2023-08-06T11:00:20;91489.69;;;12.63;100.00
7660;BME280;3872;47.902;8.162;2023-08-06T11:02:49;91479.34;;;12.24;100.00
7660;BME280;3872;47.902;8.162;2023-08-06T11:05:16;91474.63;;;12.64;100.00
7660;BME280;3872;47.902;8.162;2023-08-06T11:07:43;91477.34;;;13.22;100.00
7660;BME280;3872;47.902;8.162;2023-08-06T11:10:11;91486.03;;;12.85;100.00
7660;BME280;3872;47.902;8.162;2023-08-06T11:12:38;91483.28;;;13.11;100.00
7660;BME280;3872;47.902;8.162;2023-08-06T11:15:06;91495.25;;;12.62;100.00
7660;BME280;3872;47.902;8.162;2023-08-06T11:17:33;91487.41;;;13.58;100.00
7660;BME280;3872;47.902;8.162;2023-08-06T11:20:02;91490.66;;;12.50;100.00
7660;BME280;3872;47.902;8.162;2023-08-06T11:22:29;91503.31;;;12.65;100.00
7660;BME280;3872;47.902;8.162;2023-08-06T11:24:56;91505.16;;;12.73;100.00
7660;BME280;3872;47.902;8.162;2023-08-06T11:27:26;91503.50;;;12.60;100.00
7660;BME280;3872;47.902;8.162;2023-08-06T11:29:53;91512.69;;;12.45;100.00
7660;BME280;3872;47.902;8.162;2023-08-06T11:32:19;91500.44;;;12.15;100.00
7660;BME280;3872;47.902;8.162;2023-08-06T11:34:46;91500.44;;;12.41;100.00
7660;BME280;3872;47.902;8.162;2023-08-06T11:37:14;91520.31;;;12.21;100.00
7660;BME280;3872;47.902;8.162;2023-08-06T11:39:46;91533.06;;;11.93;100.00
7660;BME280;3872;47.902;8.162;2023-08-06T11:42:14;91522.19;;;12.21;100.00
7660;BME280;3872;47.902;8.162;2023-08-06T11:44:41;91531.91;;;12.54;100.00
7660;BME280;3872;47.902;8.162;2023-08-06T11:47:13;91538.63;;;11.83;100.00
7660;BME280;3872;47.902;8.162;2023-08-06T11:49:41;91528.31;;;11.56;100.00
7660;BME280;3872;47.902;8.162;2023-08-06T11:52:12;91534.25;;;11.87;100.00
7660;BME280;3872;47.902;8.162;2023-08-06T11:54:40;91542.69;;;11.41;100.00
7660;BME280;3872;47.902;8.162;2023-08-06T11:57:07;91537.81;;;11.17;100.00
7660;BME280;3872;47.902;8.162;2023-08-06T11:59:34;91535.53;;;11.33;100.00
7660;BME280;3872;47.902;8.162;2023-08-06T12:02:02;91544.09;;;11.47;100.00
7660;BME280;3872;47.902;8.162;2023-08-06T12:04:31;91534.44;;;11.91;100.00
7660;BME280;3872;47.902;8.162;2023-08-06T12:07:04;91544.06;;;12.04;100.00
7660;BME280;3872;47.902;8.162;2023-08-06T12:09:31;91540.97;;;11.93;100.00
7660;BME280;3872;47.902;8.162;2023-08-06T12:11:59;91536.69;;;11.66;100.00
7660;BME280;3872;47.902;8.162;2023-08-06T12:14:25;91542.03;;;11.84;100.00
7660;BME280;3872;47.902;8.162;2023-08-06T12:16:52;91532.09;;;11.89;100.00
7660;BME280;3872;47.902;8.162;2023-08-06T12:19:18;91542.53;;;11.46;100.00
7660;BME280;3872;47.902;8.162;2023-08-06T12:21:45;91533.34;;;12.09;100.00
7660;BME280;3872;47.902;8.162;2023-08-06T12:24:11;91533.78;;;12.54;100.00
7660;BME280;3872;47.902;8.162;2023-08-06T12:26:38;91536.56;;;12.57;100.00
7660;BME280;3872;47.902;8.162;2023-08-06T12:29:06;91543.75;;;12.31;100.00
7660;BME280;3872;47.902;8.162;2023-08-06T12:31:32;91544.91;;;11.73;100.00
7660;BME280;3872;47.902;8.162;2023-08-06T12:33:59;91544.06;;;12.04;100.00
7660;BME280;3872;47.902;8.162;2023-08-06T12:36:25;91553.66;;;11.83;100.00
7660;BME280;3872;47.902;8.162;2023-08-06T12:38:52;91552.13;;;12.07;100.00
7660;BME280;3872;47.902;8.162;2023-08-06T12:41:18;91562.22;;;12.48;100.00
7660;BME280;3872;47.902;8.162;2023-08-06T12:43:45;91556.31;;;12.08;100.00
7660;BME280;3872;47.902;8.162;2023-08-06T12:46:13;91567.78;;;12.04;100.00
7660;BME280;3872;47.902;8.162;2023-08-06T12:48:40;91575.25;;;12.10;100.00
7660;BME280;3872;47.902;8.162;2023-08-06T12:51:06;91569.19;;;11.93;100.00
7660;BME280;3872;47.902;8.162;2023-08-06T12:53:33;91567.19;;;12.33;100.00
7660;BME280;3872;47.902;8.162;2023-08-06T12:55:59;91565.16;;;12.21;100.00
7660;BME280;3872;47.902;8.162;2023-08-06T12:58:26;91570.59;;;12.33;100.00
7660;BME280;3872;47.902;8.162;2023-08-06T13:00:53;91562.69;;;12.42;100.00
7660;BME280;3872;47.902;8.162;2023-08-06T13:03:21;91565.31;;;13.23;100.00
7660;BME280;3872;47.902;8.162;2023-08-06T13:05:48;91548.16;;;13.67;100.00
7660;BME280;3872;47.902;8.162;2023-08-06T13:08:15;91568.13;;;13.09;100.00
7660;BME280;3872;47.902;8.162;2023-08-06T13:10:41;91566.81;;;13.41;100.00
7660;BME280;3872;47.902;8.162;2023-08-06T13:13:08;91583.38;;;13.21;100.00
7660;BME280;3872;47.902;8.162;2023-08-06T13:15:35;91583.16;;;12.36;100.00